Time;durP1;ratioP1;P1;durP2;ratioP2;P2;SDS_P1;SDS_P2;PMS_P1;PMS_P2;Temp;Humidity;BMP_temperature;BMP_pressure;BME280_temperature;BME280_humidity;BME280_pressure;Samples;Min_cycle;Max_cycle;Signal;HPM_P1;HPM_P2
2021/07/14 00:00:36;;;;;;;17.48;15.80;;;;;;;23.52;64.25;99761.11;128196;1095;23139;-77
2021/07/14 00:03:19;;;;;;;16.88;15.58;;;;;;;23.49;64.20;99761.64;128225;1095;22378;-77
2021/07/14 00:05:49;;;;;;;17.38;15.85;;;;;;;23.46;64.10;99767.60;128209;1095;22352;-77
2021/07/14 00:08:18;;;;;;;16.95;15.65;;;;;;;23.43;64.23;99771.63;128188;1095;22384;-77
2021/07/14 00:10:48;;;;;;;18.20;16.73;;;;;;;23.41;64.57;99764.88;128247;1095;24253;-77
2021/07/14 00:24:05;;;;;;;17.75;16.20;;;;;;;23.27;64.76;99761.09;128229;1095;22357;-77
2021/07/14 00:26:35;;;;;;;17.73;16.20;;;;;;;23.25;64.96;99758.64;128226;1095;22375;-77
2021/07/14 00:29:11;;;;;;;18.95;16.93;;;;;;;23.20;65.34;99764.03;128197;1095;24064;-77
2021/07/14 00:31:41;;;;;;;18.45;16.98;;;;;;;23.17;65.32;99772.64;128195;1095;24499;-76
2021/07/14 00:34:11;;;;;;;17.87;16.20;;;;;;;23.14;65.81;99767.78;128272;1095;22439;-76
2021/07/14 00:36:41;;;;;;;19.33;17.50;;;;;;;23.12;65.58;99761.84;128212;1093;22359;-77
2021/07/14 00:39:11;;;;;;;18.75;17.23;;;;;;;23.07;65.91;99764.53;128165;1095;22372;-76
2021/07/14 00:41:40;;;;;;;19.23;17.50;;;;;;;23.03;65.90;99752.67;128226;1093;22356;-76
2021/07/14 00:44:10;;;;;;;19.88;18.18;;;;;;;22.96;66.29;99751.03;128233;1095;22360;-76
2021/07/14 00:46:40;;;;;;;17.98;16.30;;;;;;;22.89;66.24;99753.13;128174;1095;24496;-76
2021/07/14 00:49:10;;;;;;;20.47;18.77;;;;;;;22.82;66.77;99755.23;128195;1095;22361;-76
2021/07/14 00:51:40;;;;;;;20.43;18.83;;;;;;;22.79;66.63;99753.06;128214;1095;22359;-77
2021/07/14 00:54:11;;;;;;;20.48;18.50;;;;;;;22.73;67.23;99738.78;128208;1095;22359;-77
2021/07/14 00:56:40;;;;;;;21.58;19.73;;;;;;;22.69;67.14;99743.09;128209;1095;23137;-77
2021/07/14 00:59:10;;;;;;;20.80;18.90;;;;;;;22.67;67.55;99755.98;128193;1095;24502;-76
2021/07/14 01:01:39;;;;;;;21.68;19.98;;;;;;;22.67;67.61;99749.80;128207;1095;22361;-76
2021/07/14 01:04:17;;;;;;;20.45;18.40;;;;;;;22.66;67.82;99757.06;128198;1095;22357;-76
2021/07/14 01:07:03;;;;;;;21.75;20.05;;;;;;;22.65;68.06;99755.42;128223;1095;22359;-77
2021/07/14 01:09:56;;;;;;;20.93;19.13;;;;;;;22.63;68.22;99751.40;128136;1097;22359;-78
2021/07/14 01:13:03;;;;;;;21.18;19.45;;;;;;;22.60;68.25;99754.61;127999;1098;22375;-76
2021/07/14 01:15:47;;;;;;;21.00;19.30;;;;;;;22.56;68.26;99743.55;128050;1098;24237;-77
2021/07/14 01:18:30;;;;;;;20.13;18.20;;;;;;;22.54;68.22;99741.11;128185;1097;22359;-77
2021/07/14 01:21:35;;;;;;;21.43;19.25;;;;;;;22.55;68.58;99731.15;127979;1098;22356;-77
2021/07/14 01:24:40;;;;;;;21.05;19.15;;;;;;;22.54;68.60;99735.73;127495;1101;22830;-77
2021/07/14 01:27:13;;;;;;;20.50;18.63;;;;;;;22.52;68.47;99740.55;127443;1101;22388;-77
2021/07/14 01:30:10;;;;;;;22.85;20.75;;;;;;;22.52;68.76;99737.86;127902;1101;22401;-77
2021/07/14 01:32:42;;;;;;;21.63;19.90;;;;;;;22.50;68.69;99740.02;127991;1101;24272;-77
2021/07/14 01:35:29;;;;;;;21.28;19.58;;;;;;;22.53;68.68;99736.81;127997;1100;22407;-76
2021/07/14 01:38:00;;;;;;;21.08;19.03;;;;;;;22.53;68.61;99730.62;127894;1100;22401;-77
2021/07/14 01:40:33;;;;;;;21.75;19.75;;;;;;;22.52;68.72;99721.70;127886;1101;22378;-76
2021/07/14 01:43:05;;;;;;;19.88;18.18;;;;;;;22.50;68.77;99723.88;127884;1101;22389;-76
2021/07/14 01:45:39;;;;;;;22.13;20.53;;;;;;;22.49;68.48;99730.34;127935;1101;22367;-77
2021/07/14 01:48:11;;;;;;;21.43;19.80;;;;;;;22.48;69.02;99733.27;127527;1101;22395;-77
2021/07/14 01:50:41;;;;;;;21.00;19.20;;;;;;;22.46;68.67;99728.16;127930;1101;22646;-77
2021/07/14 01:53:11;;;;;;;22.83;20.68;;;;;;;22.43;68.92;99731.38;127885;1101;22422;-78
2021/07/14 01:55:42;;;;;;;23.48;21.08;;;;;;;22.42;69.10;99727.05;127834;1101;23159;-77
2021/07/14 01:58:15;;;;;;;23.45;21.35;;;;;;;22.44;68.82;99727.60;127613;1101;22398;-76
2021/07/14 02:00:49;;;;;;;23.27;21.17;;;;;;;22.46;68.99;99732.71;127723;1098;22385;-76
2021/07/14 02:06:01;;;;;;;23.23;21.33;;;;;;;22.45;68.52;99729.21;128259;1095;22382;-77
2021/07/14 02:08:31;;;;;;;22.53;20.23;;;;;;;22.45;68.21;99733.79;127952;1098;22365;-76
2021/07/14 02:11:01;;;;;;;23.98;21.88;;;;;;;22.41;68.39;99730.81;127962;1098;25017;-76
2021/07/14 02:13:32;;;;;;;24.18;22.13;;;;;;;22.40;68.30;99744.55;127966;1098;24307;-77
2021/07/14 02:16:06;;;;;;;24.65;22.35;;;;;;;22.37;68.95;99750.44;127999;1098;22528;-78
2021/07/14 02:18:41;;;;;;;24.43;22.45;;;;;;;22.36;68.69;99754.19;127987;1098;22364;-76
2021/07/14 02:21:10;;;;;;;23.80;21.80;;;;;;;22.31;68.78;99749.59;127927;1098;22383;-77
2021/07/14 02:23:40;;;;;;;23.73;21.95;;;;;;;22.27;68.61;99751.99;128047;1096;24072;-76
2021/07/14 02:26:10;;;;;;;23.13;21.18;;;;;;;22.25;68.98;99750.63;127987;1095;22371;-77
2021/07/14 02:28:40;;;;;;;23.78;21.73;;;;;;;22.24;68.67;99752.51;128243;1095;24502;-77
2021/07/14 02:31:10;;;;;;;24.13;21.85;;;;;;;22.24;68.77;99752.51;128469;1095;22364;-78
2021/07/14 02:33:39;;;;;;;24.68;22.70;;;;;;;22.21;68.66;99752.22;128365;1095;22370;-78
2021/07/14 02:36:16;;;;;;;23.63;21.63;;;;;;;22.19;68.69;99733.66;128455;1095;24258;-77
2021/07/14 02:38:54;;;;;;;24.33;21.90;;;;;;;22.19;69.00;99738.20;128479;1095;22366;-77
2021/07/14 02:41:41;;;;;;;24.00;21.90;;;;;;;22.21;68.84;99736.08;128223;1095;24304;-78
2021/07/14 02:44:14;;;;;;;22.93;21.03;;;;;;;22.21;68.83;99741.45;128201;1095;24514;-77
2021/07/14 02:46:45;;;;;;;24.38;22.38;;;;;;;22.21;68.90;99725.31;128329;1095;22353;-77
2021/07/14 02:49:24;;;;;;;24.78;22.58;;;;;;;22.23;69.10;99725.88;128486;1095;24502;-77
2021/07/14 02:51:56;;;;;;;23.48;21.50;;;;;;;22.23;68.65;99726.69;128315;1095;22359;-77
2021/07/14 02:54:29;;;;;;;23.63;21.57;;;;;;;22.23;68.84;99721.30;128227;1095;22378;-77
2021/07/14 02:57:02;;;;;;;23.25;21.18;;;;;;;22.25;68.82;99721.03;128278;1095;24253;-77
2021/07/14 02:59:36;;;;;;;25.25;22.98;;;;;;;22.24;68.19;99711.34;128249;1095;22367;-78
2021/07/14 03:02:08;;;;;;;25.43;23.10;;;;;;;22.23;68.65;99710.55;128214;1095;22394;-77
2021/07/14 03:04:43;;;;;;;25.13;23.00;;;;;;;22.23;68.79;99712.43;128251;1095;22412;-76
2021/07/14 03:07:15;;;;;;;25.08;22.63;;;;;;;22.22;68.85;99714.28;128205;1095;24250;-77
2021/07/14 03:09:46;;;;;;;25.10;22.78;;;;;;;22.22;68.55;99724.23;128443;1095;24253;-78
2021/07/14 03:12:20;;;;;;;24.33;22.10;;;;;;;22.21;68.88;99728.01;128161;1095;22379;-77
2021/07/14 03:15:01;;;;;;;25.05;22.75;;;;;;;22.20;69.08;99729.89;128176;1095;24492;-78
2021/07/14 03:17:32;;;;;;;23.48;21.40;;;;;;;22.20;68.83;99723.70;128215;1095;24231;-76
2021/07/14 03:20:07;;;;;;;22.50;20.55;;;;;;;22.18;69.18;99729.33;128199;1095;22385;-77
2021/07/14 03:22:43;;;;;;;24.75;22.43;;;;;;;22.20;69.06;99729.09;128566;1095;24253;-78
2021/07/14 03:25:15;;;;;;;25.23;22.95;;;;;;;22.20;69.09;99724.52;128455;1095;22351;-79
2021/07/14 03:27:51;;;;;;;23.97;21.87;;;;;;;22.20;68.96;99715.63;128504;1094;22408;-79
2021/07/14 03:30:23;;;;;;;23.83;21.83;;;;;;;22.21;69.10;99722.63;128446;1095;22359;-79
2021/07/14 03:32:55;;;;;;;24.25;21.98;;;;;;;22.24;68.91;99719.42;128268;1095;22387;-78
2021/07/14 03:35:24;;;;;;;24.00;21.95;;;;;;;22.26;69.37;99717.29;128495;1095;24256;-78
2021/07/14 03:37:57;;;;;;;24.08;21.95;;;;;;;22.26;69.33;99717.29;128485;1095;22378;-78
2021/07/14 03:40:27;;;;;;;23.18;21.18;;;;;;;22.27;69.26;99716.21;128485;1095;24525;-78
2021/07/14 03:42:57;;;;;;;23.45;21.33;;;;;;;22.29;69.30;99716.74;128163;1095;22360;-77
2021/07/14 03:45:28;;;;;;;25.35;23.05;;;;;;;22.30;69.43;99718.38;128151;1095;22347;-77
2021/07/14 03:48:00;;;;;;;24.63;22.38;;;;;;;22.32;69.52;99713.53;128155;1095;24501;-78
2021/07/14 03:50:30;;;;;;;24.73;22.60;;;;;;;22.34;69.10;99724.05;128197;1095;24508;-77
2021/07/14 03:53:02;;;;;;;25.80;23.20;;;;;;;22.37;69.65;99739.67;128256;1093;22392;-77
2021/07/14 03:55:33;;;;;;;24.63;22.35;;;;;;;22.40;69.21;99729.20;128207;1095;24303;-79
2021/07/14 03:58:03;;;;;;;24.05;21.90;;;;;;;22.45;69.30;99726.52;128485;1095;24495;-79
2021/07/14 04:00:33;;;;;;;24.73;22.23;;;;;;;22.49;69.55;99722.27;128244;1095;22359;-77
2021/07/14 04:03:03;;;;;;;23.88;21.88;;;;;;;22.52;68.90;99723.59;128218;1095;22375;-77
2021/07/14 04:05:39;;;;;;;23.60;21.60;;;;;;;22.49;69.16;99722.27;128259;1095;22359;-78
2021/07/14 04:08:13;;;;;;;26.08;23.58;;;;;;;22.47;69.33;99721.70;128417;1095;22836;-78
2021/07/14 04:10:42;;;;;;;25.98;23.68;;;;;;;22.46;69.40;99721.94;128231;1095;22360;-78
2021/07/14 04:13:12;;;;;;;26.58;24.25;;;;;;;22.49;69.61;99729.50;128222;1095;22361;-77
2021/07/14 04:15:42;;;;;;;50.53;25.25;;;;;;;22.54;69.63;99730.34;128208;1095;22379;-80
2021/07/14 04:18:13;;;;;;;27.60;24.80;;;;;;;22.56;69.43;99730.09;127972;1098;22404;-77
2021/07/14 04:20:43;;;;;;;25.28;22.98;;;;;;;22.59;69.41;99731.44;128009;1098;22364;-77
2021/07/14 04:23:12;;;;;;;27.98;25.53;;;;;;;22.61;69.74;99737.38;127942;1098;22396;-78
2021/07/14 04:25:42;;;;;;;27.43;24.93;;;;;;;22.61;69.59;99729.30;127919;1098;25034;-78
2021/07/14 04:28:12;;;;;;;26.60;24.30;;;;;;;22.63;69.66;99735.25;128203;1096;22355;-79
2021/07/14 04:30:41;;;;;;;26.58;24.25;;;;;;;22.71;69.78;99746.30;127922;1101;22385;-77
2021/07/14 04:33:14;;;;;;;28.70;26.25;;;;;;;22.80;69.52;99752.01;127943;1098;22368;-77
2021/07/14 04:35:47;;;;;;;28.00;25.70;;;;;;;22.88;69.58;99748.80;128213;1098;22363;-78
2021/07/14 04:38:17;;;;;;;27.58;25.13;;;;;;;22.95;69.31;99746.69;128000;1098;22417;-78
2021/07/14 04:40:46;;;;;;;30.70;24.55;;;;;;;23.03;68.53;99744.59;127960;1098;22372;-77
2021/07/14 04:43:16;;;;;;;26.73;24.38;;;;;;;23.10;69.19;99732.48;127944;1095;24508;-76
2021/07/14 04:45:45;;;;;;;33.48;30.83;;;;;;;23.17;68.86;99732.23;128186;1095;22355;-76
2021/07/14 04:48:15;;;;;;;24.28;21.98;;;;;;;23.25;68.65;99734.39;128483;1095;22357;-76
2021/07/14 04:50:44;;;;;;;25.43;22.90;;;;;;;23.33;68.53;99733.08;128173;1095;22359;-77
2021/07/14 04:53:14;;;;;;;24.00;22.00;;;;;;;23.44;68.26;99737.39;128224;1095;24234;-76
2021/07/14 04:55:44;;;;;;;24.43;22.43;;;;;;;23.52;67.76;99723.38;128186;1095;22754;-76
2021/07/14 04:58:13;;;;;;;25.50;22.90;;;;;;;23.57;67.84;99722.59;128158;1095;22402;-77
2021/07/14 05:00:43;;;;;;;25.90;23.70;;;;;;;23.60;67.37;99712.07;128206;1095;22375;-77
2021/07/14 05:03:12;;;;;;;23.33;21.35;;;;;;;23.66;67.43;99707.50;128223;1095;25024;-76
2021/07/14 05:05:42;;;;;;;23.95;21.60;;;;;;;23.71;67.75;99710.20;128218;1095;22357;-76
2021/07/14 05:08:11;;;;;;;25.73;23.23;;;;;;;23.78;67.44;99720.73;128194;1095;25024;-76
2021/07/14 05:10:41;;;;;;;24.60;22.20;;;;;;;23.86;67.34;99718.30;128271;1095;22378;-76
2021/07/14 05:13:10;;;;;;;26.05;23.95;;;;;;;23.92;66.98;99714.50;128154;1095;22359;-76
2021/07/14 05:15:40;;;;;;;27.55;24.90;;;;;;;23.98;66.96;99717.20;128272;1095;24854;-77
2021/07/14 05:18:12;;;;;;;26.33;23.63;;;;;;;24.07;67.22;99710.98;128193;1095;22903;-78
2021/07/14 05:20:42;;;;;;;27.73;24.63;;;;;;;24.16;66.98;99716.65;128265;1095;22378;-78
2021/07/14 05:23:11;;;;;;;26.20;23.20;;;;;;;24.21;66.62;99718.52;128224;1095;24919;-78
2021/07/14 05:25:41;;;;;;;25.90;23.47;;;;;;;24.28;66.62;99721.73;128263;1095;22360;-78
2021/07/14 05:28:11;;;;;;;26.65;24.13;;;;;;;24.38;66.56;99722.52;128271;1095;22356;-79
2021/07/14 05:30:40;;;;;;;25.18;22.58;;;;;;;24.53;66.35;99720.91;128228;1093;22381;-78
2021/07/14 05:33:10;;;;;;;25.23;22.83;;;;;;;24.68;65.95;99734.33;127924;1098;22421;-77
2021/07/14 05:35:40;;;;;;;25.70;23.20;;;;;;;24.76;65.74;99727.54;128063;1098;22396;-78
2021/07/14 05:38:10;;;;;;;24.70;22.55;;;;;;;24.89;65.55;99733.17;128050;1098;24608;-75
2021/07/14 05:40:39;;;;;;;25.18;22.73;;;;;;;25.03;65.20;99737.97;128025;1098;22410;-76
2021/07/14 05:43:08;;;;;;;23.48;21.05;;;;;;;25.19;64.75;99733.30;127908;1101;24527;-75
2021/07/14 05:45:38;;;;;;;22.43;20.43;;;;;;;25.30;64.57;99732.17;127877;1100;22411;-75
2021/07/14 05:48:08;;;;;;;23.78;20.43;;;;;;;25.48;64.05;99731.48;127921;1101;22377;-75
2021/07/14 05:50:38;;;;;;;22.65;20.35;;;;;;;25.69;63.88;99736.73;127971;1100;22420;-76
2021/07/14 05:53:08;;;;;;;53.45;25.98;;;;;;;25.88;63.16;99739.59;128260;1098;23044;-76
2021/07/14 05:55:38;;;;;;;54.18;27.35;;;;;;;26.07;62.95;99739.70;128190;1098;22680;-75
2021/07/14 05:58:08;;;;;;;69.67;28.27;;;;;;;26.30;62.59;99747.05;127969;1098;24504;-75
2021/07/14 06:00:39;;;;;;;37.90;23.88;;;;;;;26.52;62.13;99749.27;128198;1095;25031;-76
2021/07/14 06:03:09;;;;;;;44.93;21.77;;;;;;;26.81;61.64;99743.78;128237;1095;22433;-76
2021/07/14 06:05:39;;;;;;;21.90;19.87;;;;;;;27.07;60.58;99746.97;128237;1095;23286;-76
2021/07/14 06:08:08;;;;;;;19.05;17.30;;;;;;;27.31;59.80;99754.27;128187;1095;24528;-75
2021/07/14 06:10:38;;;;;;;19.10;17.13;;;;;;;27.54;59.02;99749.86;128215;1095;23134;-75
2021/07/14 06:13:11;;;;;;;18.85;17.25;;;;;;;27.77;57.87;99761.73;128267;1095;24240;-75
2021/07/14 06:15:41;;;;;;;24.15;16.38;;;;;;;27.99;57.88;99753.77;128201;1095;22406;-77
2021/07/14 06:18:11;;;;;;;17.83;16.45;;;;;;;28.22;56.70;99759.32;128193;1095;23151;-76
2021/07/14 06:20:41;;;;;;;18.10;16.30;;;;;;;28.42;56.39;99766.31;128258;1095;24259;-76
2021/07/14 06:23:10;;;;;;;18.55;16.83;;;;;;;28.57;55.25;99768.75;128237;1095;23714;-75
2021/07/14 06:25:40;;;;;;;16.90;15.43;;;;;;;28.70;54.82;99776.10;128233;1095;22375;-75
2021/07/14 06:28:13;;;;;;;21.30;16.00;;;;;;;28.82;54.36;99781.84;128169;1095;22362;-75
2021/07/14 06:30:46;;;;;;;17.03;15.33;;;;;;;28.97;54.30;99767.12;128251;1095;22692;-75
2021/07/14 06:33:16;;;;;;;18.53;15.75;;;;;;;29.19;53.91;99768.30;128308;1095;24164;-76
2021/07/14 06:35:46;;;;;;;19.00;17.23;;;;;;;29.41;53.48;99767.55;128225;1095;22340;-76
2021/07/14 06:38:16;;;;;;;17.68;15.75;;;;;;;29.55;52.78;99760.13;128244;1095;22360;-75
2021/07/14 06:40:45;;;;;;;18.48;16.55;;;;;;;29.72;52.74;99767.65;128243;1095;22621;-76
2021/07/14 06:43:17;;;;;;;18.28;16.48;;;;;;;29.88;52.36;99757.99;128230;1095;22359;-75
2021/07/14 06:45:47;;;;;;;17.25;15.58;;;;;;;30.05;51.73;99765.46;128278;1095;22262;-75
2021/07/14 06:48:17;;;;;;;16.53;14.65;;;;;;;30.11;51.20;99760.70;128297;1095;22356;-76
2021/07/14 06:50:46;;;;;;;17.58;15.53;;;;;;;30.10;50.58;99762.62;128251;1094;24499;-76
2021/07/14 06:53:16;;;;;;;17.33;15.18;;;;;;;30.11;50.28;99766.94;128289;1095;22330;-76
2021/07/14 06:55:45;;;;;;;16.08;14.38;;;;;;;30.18;50.32;99763.77;128258;1095;22363;-76
2021/07/14 06:58:14;;;;;;;17.10;15.38;;;;;;;30.24;50.30;99757.91;128269;1095;24252;-76
2021/07/14 07:00:44;;;;;;;19.55;17.25;;;;;;;30.30;49.92;99758.58;128224;1095;22350;-76
2021/07/14 07:03:14;;;;;;;19.00;17.20;;;;;;;30.37;50.13;99756.20;128271;1095;22379;-75
2021/07/14 07:05:44;;;;;;;17.98;16.20;;;;;;;30.44;49.47;99767.45;128358;1095;23268;-76
2021/07/14 07:08:15;;;;;;;18.03;16.18;;;;;;;30.51;49.21;99768.92;128238;1095;22379;-75
2021/07/14 07:10:46;;;;;;;18.23;16.65;;;;;;;30.61;48.94;99774.09;128313;1095;22359;-76
2021/07/14 07:13:16;;;;;;;22.18;16.03;;;;;;;30.81;48.88;99773.53;128259;1095;22417;-77
2021/07/14 07:15:46;;;;;;;16.73;15.05;;;;;;;31.09;48.47;99784.17;128201;1094;22384;-76
2021/07/14 07:18:19;;;;;;;18.90;15.30;;;;;;;31.31;48.04;99794.97;128245;1093;22916;-76
2021/07/14 07:20:58;;;;;;;17.38;15.75;;;;;;;31.37;47.36;99799.18;128187;1095;22442;-78
2021/07/14 07:23:27;;;;;;;17.75;15.75;;;;;;;31.53;47.51;99795.98;128216;1095;23138;-79
2021/07/14 07:25:58;;;;;;;17.87;16.13;;;;;;;31.70;47.11;99803.36;128213;1095;22352;-78
2021/07/14 07:28:33;;;;;;;15.90;14.40;;;;;;;31.80;46.71;99798.37;127908;1098;25535;-77
2021/07/14 07:31:06;;;;;;;19.28;15.45;;;;;;;32.05;46.72;99795.94;127931;1098;22452;-79
2021/07/14 07:33:38;;;;;;;16.03;14.20;;;;;;;32.23;46.09;99808.45;128097;1098;22442;-78
2021/07/14 07:36:08;;;;;;;15.78;14.18;;;;;;;32.38;44.92;99795.38;127936;1098;22393;-79
2021/07/14 07:38:40;;;;;;;16.50;14.88;;;;;;;32.40;44.38;99801.33;127922;1098;22504;-77
2021/07/14 07:41:12;;;;;;;14.83;12.83;;;;;;;32.53;44.49;99801.13;127893;1098;22401;-77
2021/07/14 07:43:43;;;;;;;16.38;14.30;;;;;;;32.68;43.94;99797.03;128016;1098;22434;-78
2021/07/14 07:46:13;;;;;;;13.75;12.35;;;;;;;32.78;43.20;99796.66;128002;1095;22365;-77
2021/07/14 07:48:43;;;;;;;14.40;12.93;;;;;;;32.80;42.19;99810.02;128200;1095;24505;-78
2021/07/14 07:51:13;;;;;;;16.43;13.18;;;;;;;32.75;42.76;99805.52;128234;1098;24339;-78
2021/07/14 07:53:42;;;;;;;;;;;;;;;32.58;42.19;99806.41;127958;1098;24269;-78
2021/07/14 07:56:13;;;;;;;13.33;11.80;;;;;;;32.42;42.46;99809.98;128053;1098;22354;-78
2021/07/14 07:58:44;;;;;;;14.73;12.18;;;;;;;32.32;43.18;99814.70;127940;1101;22363;-74
2021/07/14 08:01:13;;;;;;;;;;;;;;;32.09;42.71;99821.51;127955;1100;22370;-75
2021/07/14 08:03:43;;;;;;;16.98;13.40;;;;;;;31.85;43.43;99819.23;127924;1101;21276;-75
2021/07/14 08:06:12;;;;;;;14.43;13.03;;;;;;;31.68;43.86;99806.40;128052;1101;23142;-73
2021/07/14 08:08:42;;;;;;;13.63;12.25;;;;;;;31.56;44.47;99798.08;127898;1098;22368;-74
2021/07/14 08:11:12;;;;;;;16.18;13.55;;;;;;;31.52;44.87;99792.42;127956;1098;23300;-74
2021/07/14 08:13:41;;;;;;;15.30;13.90;;;;;;;31.52;44.97;99794.36;127956;1098;25031;-73
2021/07/14 08:16:11;;;;;;;31.88;14.35;;;;;;;31.52;44.51;99799.81;127934;1095;22381;-76
2021/07/14 08:18:41;;;;;;;18.28;13.93;;;;;;;31.53;44.42;99809.63;128179;1095;22378;-74
2021/07/14 08:21:10;;;;;;;14.00;12.63;;;;;;;31.64;44.83;99813.64;128168;1095;22363;-74
2021/07/14 08:23:40;;;;;;;13.90;12.60;;;;;;;31.84;44.54;99817.64;128201;1094;25757;-74
2021/07/14 08:26:09;;;;;;;14.23;13.03;;;;;;;32.07;44.29;99830.02;128215;1095;24502;-74
2021/07/14 08:28:41;;;;;;;17.18;15.48;;;;;;;32.20;43.67;99841.09;128227;1095;22385;-74
2021/07/14 08:31:10;;;;;;;15.98;14.45;;;;;;;32.26;44.06;99865.19;128293;1095;22420;-75
2021/07/14 08:33:40;;;;;;;16.63;14.20;;;;;;;32.37;43.82;99865.64;128196;1095;22373;-75
2021/07/14 08:36:10;;;;;;;18.73;16.48;;;;;;;32.60;43.58;99858.05;128203;1095;22365;-75
2021/07/14 08:38:39;;;;;;;15.83;14.33;;;;;;;32.85;43.34;99852.78;128182;1095;22384;-76
2021/07/14 08:41:20;;;;;;;14.83;13.33;;;;;;;33.08;43.04;99854.14;128197;1095;22348;-76
2021/07/14 08:43:52;;;;;;;19.28;15.25;;;;;;;33.33;43.30;99882.51;128166;1095;24516;-75
2021/07/14 08:46:22;;;;;;;16.18;13.28;;;;;;;33.57;42.50;99887.37;128292;1095;22356;-75
2021/07/14 08:48:53;;;;;;;14.13;12.63;;;;;;;33.79;41.91;99899.94;128305;1095;22261;-75
2021/07/14 08:51:22;;;;;;;30.18;12.48;;;;;;;33.95;41.30;99905.59;128218;1095;24959;-75
2021/07/14 08:53:52;;;;;;;12.90;11.50;;;;;;;33.90;40.25;99905.81;128229;1095;23121;-75
2021/07/14 08:56:22;;;;;;;17.15;12.33;;;;;;;33.81;40.38;99918.77;128238;1095;22375;-76
2021/07/14 08:58:52;;;;;;;12.90;9.90;;;;;;;33.81;40.51;99913.29;128204;1095;22369;-76
2021/07/14 09:01:22;;;;;;;21.68;10.38;;;;;;;33.80;40.48;99914.44;127976;1098;23344;-76
2021/07/14 09:03:51;;;;;;;12.93;9.38;;;;;;;33.80;40.25;99928.13;127925;1098;22374;-76
2021/07/14 09:06:21;;;;;;;15.20;11.57;;;;;;;33.84;40.46;99931.80;127932;1098;22379;-75
2021/07/14 09:08:50;;;;;;;;;;;;;;;33.88;40.54;99938.21;127950;1098;22395;-75
2021/07/14 09:11:20;;;;;;;21.55;12.13;;;;;;;33.87;40.80;99942.09;128033;1098;22396;-76
2021/07/14 09:13:49;;;;;;;14.35;12.95;;;;;;;33.91;41.27;99953.98;127978;1098;22376;-76
2021/07/14 09:16:36;;;;;;;18.57;13.93;;;;;;;33.85;41.08;99947.89;128143;1098;22348;-77
2021/07/14 09:19:16;;;;;;;21.20;13.15;;;;;;;33.57;41.68;99961.30;128231;1095;24499;-76
2021/07/14 09:21:45;;;;;;;23.53;13.33;;;;;;;33.22;41.94;99966.95;128268;1095;22359;-76
2021/07/14 09:24:33;;;;;;;15.78;13.25;;;;;;;32.97;42.43;99965.10;128183;1095;22369;-77
2021/07/14 09:27:22;;;;;;;28.45;15.15;;;;;;;32.84;42.86;99986.03;128363;1095;22365;-77
2021/07/14 09:30:30;;;;;;;18.00;14.55;;;;;;;32.44;42.95;99985.45;128293;1095;22353;-77
2021/07/14 09:33:04;;;;;;;17.43;14.80;;;;;;;31.96;44.29;99986.39;127944;1098;22414;-76
2021/07/14 09:35:49;;;;;;;19.60;16.20;;;;;;;31.81;44.51;99987.61;127946;1098;22391;-76
2021/07/14 09:38:28;;;;;;;18.55;13.28;;;;;;;31.63;44.76;99984.84;127915;1098;23616;-75
2021/07/14 09:41:04;;;;;;;21.98;14.35;;;;;;;31.43;45.23;99996.36;127928;1098;22362;-76
2021/07/14 09:43:36;;;;;;;15.35;13.80;;;;;;;31.29;44.87;99987.42;128028;1098;22385;-75
2021/07/14 09:46:14;;;;;;;19.08;15.53;;;;;;;31.22;45.46;99978.89;127937;1098;24520;-81
2021/07/14 09:48:47;;;;;;;17.68;13.25;;;;;;;31.13;45.43;99981.59;127922;1098;22418;-75
2021/07/14 09:51:24;;;;;;;14.38;12.43;;;;;;;31.06;45.14;99981.25;127985;1098;22395;-77
2021/07/14 09:53:56;;;;;;;13.68;12.23;;;;;;;31.03;45.32;99985.40;127926;1098;22372;-76
2021/07/14 09:56:33;;;;;;;13.55;11.73;;;;;;;31.00;45.64;99988.75;127979;1098;22402;-75
2021/07/14 09:59:10;;;;;;;16.35;12.65;;;;;;;30.98;45.20;99995.63;127957;1098;25056;-75
2021/07/14 10:01:43;;;;;;;15.00;13.43;;;;;;;30.84;45.27;99988.33;127980;1098;22376;-75
2021/07/14 10:04:27;;;;;;;16.38;12.58;;;;;;;30.71;45.71;99989.98;128115;1095;22356;-75
2021/07/14 10:07:30;;;;;;;17.53;13.08;;;;;;;30.59;46.09;99988.94;128259;1095;22374;-75
2021/07/14 10:10:11;;;;;;;18.35;12.23;;;;;;;30.64;46.48;99988.82;128259;1095;23145;-76
2021/07/14 10:12:41;;;;;;;15.95;11.05;;;;;;;30.60;46.26;100004.19;128319;1095;23126;-77
2021/07/14 10:15:13;;;;;;;18.75;14.08;;;;;;;30.66;46.28;100006.48;128246;1095;22375;-75
2021/07/14 10:17:51;;;;;;;15.53;13.05;;;;;;;30.76;45.85;100005.45;128222;1095;22360;-75
2021/07/14 10:20:35;;;;;;;18.53;11.95;;;;;;;30.71;45.75;100010.99;128227;1095;22356;-75
2021/07/14 10:23:13;;;;;;;12.03;10.80;;;;;;;30.58;45.93;100022.77;128199;1095;22376;-75
2021/07/14 10:25:45;;;;;;;21.77;13.38;;;;;;;30.42;45.82;100047.67;128251;1095;22407;-75
2021/07/14 10:28:20;;;;;;;16.43;11.98;;;;;;;30.29;46.24;100048.52;128258;1095;22360;-74
2021/07/14 10:30:52;;;;;;;14.33;11.30;;;;;;;30.27;46.87;100039.83;128265;1095;22353;-75
2021/07/14 10:33:23;;;;;;;14.38;11.15;;;;;;;30.31;46.97;100040.83;128246;1095;22359;-75
2021/07/14 10:35:54;;;;;;;14.95;11.03;;;;;;;30.44;46.68;100045.42;128229;1095;22801;-75
2021/07/14 10:38:28;;;;;;;16.10;11.35;;;;;;;30.40;46.39;100041.72;128261;1095;22225;-76
2021/07/14 10:41:03;;;;;;;11.25;8.58;;;;;;;30.25;46.34;100044.77;128250;1094;22640;-75
2021/07/14 10:43:34;;;;;;;17.03;7.83;;;;;;;30.09;45.56;100052.46;128198;1095;22350;-75
2021/07/14 10:46:25;;;;;;;12.60;9.25;;;;;;;29.90;45.25;100066.19;128184;1095;22348;-75
2021/07/14 10:48:58;;;;;;;21.33;8.90;;;;;;;29.78;45.43;100074.86;128264;1095;22360;-77
2021/07/14 10:51:31;;;;;;;15.48;8.43;;;;;;;29.68;45.43;100098.75;128246;1095;22673;-75
2021/07/14 10:54:05;;;;;;;14.95;8.38;;;;;;;29.64;45.80;100111.36;128293;1096;22354;-77
2021/07/14 10:56:44;;;;;;;12.65;7.33;;;;;;;29.57;46.01;100106.28;128309;1095;24502;-76
2021/07/14 10:59:15;;;;;;;10.58;7.18;;;;;;;29.58;46.21;100104.36;128304;1095;22381;-75
2021/07/14 11:01:52;;;;;;;11.83;7.70;;;;;;;29.57;46.24;100094.59;128262;1095;22350;-76
2021/07/14 11:04:50;;;;;;;11.03;6.20;;;;;;;29.59;45.73;100097.80;128261;1095;22372;-75
2021/07/14 11:07:39;;;;;;;13.98;5.75;;;;;;;29.55;45.52;100101.12;128088;1096;22376;-76
2021/07/14 11:10:38;;;;;;;8.25;5.08;;;;;;;29.52;45.93;100092.75;128233;1098;22430;-75
2021/07/14 11:13:30;;;;;;;12.23;6.20;;;;;;;29.55;46.06;100090.23;128043;1098;22375;-75
2021/07/14 11:16:37;;;;;;;11.78;6.05;;;;;;;29.63;45.93;100104.31;128051;1098;24473;-76
2021/07/14 11:19:17;;;;;;;12.55;6.85;;;;;;;29.70;45.70;100094.63;127987;1101;22378;-76
2021/07/14 11:22:00;;;;;;;11.63;6.13;;;;;;;29.78;45.01;100082.22;127557;1101;22393;-75
2021/07/14 11:24:46;;;;;;;12.05;5.93;;;;;;;29.81;45.21;100059.03;128132;1101;22382;-75
2021/07/14 11:27:39;;;;;;;14.90;5.83;;;;;;;29.84;45.73;100061.16;128056;1101;22401;-76
2021/07/14 11:30:20;;;;;;;13.00;6.33;;;;;;;29.87;45.59;100066.00;127519;1102;23321;-76
2021/07/14 11:32:56;;;;;;;19.50;10.88;;;;;;;29.88;45.52;100059.44;127558;1103;24080;-77
2021/07/14 11:35:40;;;;;;;15.88;7.48;;;;;;;29.93;45.46;100071.03;127478;1105;24218;-76
2021/07/14 11:38:19;;;;;;;17.78;7.85;;;;;;;30.03;45.18;100044.70;127477;1104;22406;-77
2021/07/14 11:40:56;;;;;;;14.08;6.35;;;;;;;30.12;44.80;100018.34;127771;1104;22457;-77
2021/07/14 11:43:40;;;;;;;13.20;6.80;;;;;;;30.20;44.87;100014.94;127479;1103;24272;-76
2021/07/14 11:46:16;;;;;;;12.03;5.40;;;;;;;30.26;44.63;100002.81;127448;1101;22393;-75
2021/07/14 11:48:50;;;;;;;12.00;5.30;;;;;;;30.26;44.07;99997.36;127530;1101;22402;-76
2021/07/14 11:51:23;;;;;;;12.38;5.35;;;;;;;30.24;43.57;99994.13;127472;1101;22833;-75